sensor_id;sensor_type;location;lat;lon;timestamp;P1;durP1;ratioP1;P2;durP2;ratioP2
72856;SDS011;62742;52.136;4.500;2023-08-17T00:01:24;6.93;;;2.42;;
72856;SDS011;62742;52.136;4.500;2023-08-17T00:03:56;7.00;;;2.83;;
72856;SDS011;62742;52.136;4.500;2023-08-17T00:06:33;4.72;;;2.63;;
72856;SDS011;62742;52.136;4.500;2023-08-17T00:09:11;6.15;;;2.53;;
72856;SDS011;62742;52.136;4.500;2023-08-17T00:11:38;9.18;;;2.95;;
72856;SDS011;62742;52.136;4.500;2023-08-17T00:14:05;6.88;;;2.78;;
72856;SDS011;62742;52.136;4.500;2023-08-17T00:16:33;6.53;;;2.38;;
72856;SDS011;62742;52.136;4.500;2023-08-17T00:19:05;6.95;;;2.72;;
72856;SDS011;62742;52.136;4.500;2023-08-17T00:21:35;7.60;;;2.60;;
72856;SDS011;62742;52.136;4.500;2023-08-17T00:24:04;6.38;;;3.30;;
72856;SDS011;62742;52.136;4.500;2023-08-17T00:26:31;8.32;;;3.55;;
72856;SDS011;62742;52.136;4.500;2023-08-17T00:28:57;7.30;;;3.72;;
72856;SDS011;62742;52.136;4.500;2023-08-17T00:31:25;6.28;;;3.30;;
72856;SDS011;62742;52.136;4.500;2023-08-17T00:33:52;7.85;;;3.50;;
72856;SDS011;62742;52.136;4.500;2023-08-17T00:36:18;8.45;;;3.75;;
72856;SDS011;62742;52.136;4.500;2023-08-17T00:38:45;7.50;;;3.90;;
72856;SDS011;62742;52.136;4.500;2023-08-17T00:41:13;7.82;;;3.40;;
72856;SDS011;62742;52.136;4.500;2023-08-17T00:43:39;7.10;;;3.42;;
72856;SDS011;62742;52.136;4.500;2023-08-17T00:46:10;8.82;;;3.70;;
72856;SDS011;62742;52.136;4.500;2023-08-17T00:48:37;7.28;;;3.35;;
72856;SDS011;62742;52.136;4.500;2023-08-17T00:51:04;7.13;;;3.25;;
72856;SDS011;62742;52.136;4.500;2023-08-17T00:53:32;8.25;;;3.63;;
72856;SDS011;62742;52.136;4.500;2023-08-17T00:56:01;7.78;;;3.42;;
72856;SDS011;62742;52.136;4.500;2023-08-17T00:58:31;6.55;;;3.25;;
72856;SDS011;62742;52.136;4.500;2023-08-17T01:01:02;8.23;;;3.33;;
72856;SDS011;62742;52.136;4.500;2023-08-17T01:03:29;9.25;;;3.33;;
72856;SDS011;62742;52.136;4.500;2023-08-17T01:05:58;8.00;;;3.33;;
72856;SDS011;62742;52.136;4.500;2023-08-17T01:08:24;7.90;;;3.30;;
72856;SDS011;62742;52.136;4.500;2023-08-17T01:14:09;8.48;;;3.70;;
72856;SDS011;62742;52.136;4.500;2023-08-17T01:17:17;9.15;;;4.00;;
72856;SDS011;62742;52.136;4.500;2023-08-17T01:19:51;10.98;;;3.90;;
72856;SDS011;62742;52.136;4.500;2023-08-17T01:22:20;7.40;;;3.60;;
72856;SDS011;62742;52.136;4.500;2023-08-17T01:24:50;9.32;;;4.13;;
72856;SDS011;62742;52.136;4.500;2023-08-17T01:27:23;6.40;;;3.58;;
72856;SDS011;62742;52.136;4.500;2023-08-17T01:29:51;9.90;;;4.07;;
72856;SDS011;62742;52.136;4.500;2023-08-17T01:32:21;11.23;;;3.75;;
72856;SDS011;62742;52.136;4.500;2023-08-17T01:35:02;8.60;;;3.83;;
72856;SDS011;62742;52.136;4.500;2023-08-17T01:37:41;9.48;;;3.90;;
72856;SDS011;62742;52.136;4.500;2023-08-17T01:40:10;10.30;;;4.40;;
72856;SDS011;62742;52.136;4.500;2023-08-17T01:42:41;8.07;;;4.03;;
72856;SDS011;62742;52.136;4.500;2023-08-17T01:45:09;8.75;;;4.47;;
72856;SDS011;62742;52.136;4.500;2023-08-17T01:47:38;9.23;;;4.25;;
72856;SDS011;62742;52.136;4.500;2023-08-17T01:50:05;9.30;;;4.25;;
72856;SDS011;62742;52.136;4.500;2023-08-17T01:52:32;9.35;;;4.35;;
72856;SDS011;62742;52.136;4.500;2023-08-17T01:54:58;12.43;;;4.22;;
72856;SDS011;62742;52.136;4.500;2023-08-17T01:57:25;9.18;;;4.45;;
72856;SDS011;62742;52.136;4.500;2023-08-17T01:59:53;9.15;;;3.80;;
72856;SDS011;62742;52.136;4.500;2023-08-17T02:02:19;7.20;;;3.55;;
72856;SDS011;62742;52.136;4.500;2023-08-17T02:04:47;7.80;;;4.10;;
72856;SDS011;62742;52.136;4.500;2023-08-17T02:07:14;8.75;;;4.28;;
72856;SDS011;62742;52.136;4.500;2023-08-17T02:09:41;7.55;;;3.47;;
72856;SDS011;62742;52.136;4.500;2023-08-17T02:12:09;7.78;;;3.90;;
72856;SDS011;62742;52.136;4.500;2023-08-17T02:14:39;12.90;;;4.20;;
72856;SDS011;62742;52.136;4.500;2023-08-17T02:17:05;7.53;;;3.95;;
72856;SDS011;62742;52.136;4.500;2023-08-17T02:19:32;8.85;;;3.65;;
72856;SDS011;62742;52.136;4.500;2023-08-17T02:21:58;9.30;;;3.80;;
72856;SDS011;62742;52.136;4.500;2023-08-17T02:24:25;9.27;;;3.55;;
72856;SDS011;62742;52.136;4.500;2023-08-17T02:26:51;7.53;;;3.10;;
72856;SDS011;62742;52.136;4.500;2023-08-17T02:29:19;7.18;;;3.53;;
72856;SDS011;62742;52.136;4.500;2023-08-17T02:31:46;9.63;;;3.67;;
72856;SDS011;62742;52.136;4.500;2023-08-17T02:34:13;8.82;;;3.70;;
72856;SDS011;62742;52.136;4.500;2023-08-17T02:36:40;9.93;;;3.63;;
72856;SDS011;62742;52.136;4.500;2023-08-17T02:39:06;8.35;;;3.53;;
72856;SDS011;62742;52.136;4.500;2023-08-17T02:41:33;7.13;;;3.15;;
72856;SDS011;62742;52.136;4.500;2023-08-17T02:44:00;6.93;;;3.13;;
72856;SDS011;62742;52.136;4.500;2023-08-17T02:46:28;5.93;;;3.08;;
72856;SDS011;62742;52.136;4.500;2023-08-17T02:48:54;9.25;;;3.85;;
72856;SDS011;62742;52.136;4.500;2023-08-17T02:51:22;6.55;;;3.13;;
72856;SDS011;62742;52.136;4.500;2023-08-17T02:53:49;10.05;;;3.50;;
72856;SDS011;62742;52.136;4.500;2023-08-17T02:56:16;8.40;;;3.30;;
72856;SDS011;62742;52.136;4.500;2023-08-17T02:58:44;7.80;;;3.30;;
72856;SDS011;62742;52.136;4.500;2023-08-17T03:01:11;8.27;;;3.17;;
72856;SDS011;62742;52.136;4.500;2023-08-17T03:03:40;7.03;;;2.92;;
72856;SDS011;62742;52.136;4.500;2023-08-17T03:06:07;7.45;;;3.13;;
72856;SDS011;62742;52.136;4.500;2023-08-17T03:08:33;7.45;;;2.75;;
72856;SDS011;62742;52.136;4.500;2023-08-17T03:11:02;5.90;;;2.60;;
72856;SDS011;62742;52.136;4.500;2023-08-17T03:13:28;6.82;;;2.72;;
72856;SDS011;62742;52.136;4.500;2023-08-17T03:15:55;7.45;;;3.00;;
72856;SDS011;62742;52.136;4.500;2023-08-17T03:18:25;6.68;;;2.55;;
72856;SDS011;62742;52.136;4.500;2023-08-17T03:20:53;8.73;;;2.70;;
72856;SDS011;62742;52.136;4.500;2023-08-17T03:23:19;6.88;;;2.60;;
72856;SDS011;62742;52.136;4.500;2023-08-17T03:25:51;6.75;;;2.80;;
72856;SDS011;62742;52.136;4.500;2023-08-17T03:28:18;6.07;;;2.67;;
72856;SDS011;62742;52.136;4.500;2023-08-17T03:30:46;6.53;;;2.83;;
72856;SDS011;62742;52.136;4.500;2023-08-17T03:33:13;8.32;;;2.83;;
72856;SDS011;62742;52.136;4.500;2023-08-17T03:35:42;6.82;;;2.92;;
72856;SDS011;62742;52.136;4.500;2023-08-17T03:38:08;9.20;;;2.85;;
72856;SDS011;62742;52.136;4.500;2023-08-17T03:40:36;8.07;;;2.75;;
72856;SDS011;62742;52.136;4.500;2023-08-17T03:43:03;8.25;;;2.92;;
72856;SDS011;62742;52.136;4.500;2023-08-17T03:45:31;6.55;;;2.72;;
72856;SDS011;62742;52.136;4.500;2023-08-17T03:47:58;8.20;;;2.80;;
72856;SDS011;62742;52.136;4.500;2023-08-17T03:50:27;7.15;;;2.38;;
72856;SDS011;62742;52.136;4.500;2023-08-17T03:52:57;7.82;;;2.63;;
72856;SDS011;62742;52.136;4.500;2023-08-17T03:55:27;6.95;;;2.72;;
72856;SDS011;62742;52.136;4.500;2023-08-17T03:57:54;7.90;;;2.90;;
72856;SDS011;62742;52.136;4.500;2023-08-17T04:00:22;8.75;;;2.80;;
72856;SDS011;62742;52.136;4.500;2023-08-17T04:02:52;8.55;;;2.70;;
72856;SDS011;62742;52.136;4.500;2023-08-17T04:05:21;7.10;;;2.90;;
72856;SDS011;62742;52.136;4.500;2023-08-17T04:07:50;6.85;;;2.88;;
72856;SDS011;62742;52.136;4.500;2023-08-17T04:10:19;6.80;;;2.83;;
72856;SDS011;62742;52.136;4.500;2023-08-17T04:12:45;9.90;;;3.22;;
72856;SDS011;62742;52.136;4.500;2023-08-17T04:15:12;9.73;;;3.28;;
72856;SDS011;62742;52.136;4.500;2023-08-17T04:17:40;9.20;;;3.15;;
72856;SDS011;62742;52.136;4.500;2023-08-17T04:20:06;6.35;;;3.08;;
72856;SDS011;62742;52.136;4.500;2023-08-17T04:22:34;8.70;;;3.10;;
72856;SDS011;62742;52.136;4.500;2023-08-17T04:25:02;7.95;;;3.10;;
72856;SDS011;62742;52.136;4.500;2023-08-17T04:27:30;10.52;;;3.50;;
72856;SDS011;62742;52.136;4.500;2023-08-17T04:29:58;8.73;;;2.88;;
72856;SDS011;62742;52.136;4.500;2023-08-17T04:32:28;7.57;;;2.42;;
72856;SDS011;62742;52.136;4.500;2023-08-17T04:34:55;8.38;;;2.90;;
72856;SDS011;62742;52.136;4.500;2023-08-17T04:37:22;8.80;;;2.92;;
72856;SDS011;62742;52.136;4.500;2023-08-17T04:39:50;8.15;;;2.53;;
72856;SDS011;62742;52.136;4.500;2023-08-17T04:42:21;10.95;;;2.88;;
72856;SDS011;62742;52.136;4.500;2023-08-17T04:44:54;8.43;;;2.60;;
72856;SDS011;62742;52.136;4.500;2023-08-17T04:47:22;9.02;;;2.92;;
72856;SDS011;62742;52.136;4.500;2023-08-17T04:49:48;6.43;;;3.03;;
72856;SDS011;62742;52.136;4.500;2023-08-17T04:52:17;10.38;;;3.20;;
72856;SDS011;62742;52.136;4.500;2023-08-17T04:54:46;12.60;;;3.10;;
72856;SDS011;62742;52.136;4.500;2023-08-17T04:57:14;6.75;;;2.70;;
72856;SDS011;62742;52.136;4.500;2023-08-17T04:59:41;7.43;;;3.13;;
72856;SDS011;62742;52.136;4.500;2023-08-17T05:02:07;5.80;;;2.78;;
72856;SDS011;62742;52.136;4.500;2023-08-17T05:04:35;7.57;;;3.22;;
72856;SDS011;62742;52.136;4.500;2023-08-17T05:07:02;11.07;;;3.17;;
72856;SDS011;62742;52.136;4.500;2023-08-17T05:09:28;9.50;;;3.20;;
72856;SDS011;62742;52.136;4.500;2023-08-17T05:11:56;8.10;;;2.85;;
72856;SDS011;62742;52.136;4.500;2023-08-17T05:14:22;7.88;;;3.30;;
72856;SDS011;62742;52.136;4.500;2023-08-17T05:16:49;8.68;;;3.03;;
72856;SDS011;62742;52.136;4.500;2023-08-17T05:19:16;7.30;;;2.85;;
72856;SDS011;62742;52.136;4.500;2023-08-17T05:21:43;7.57;;;3.20;;
72856;SDS011;62742;52.136;4.500;2023-08-17T05:24:09;8.20;;;2.80;;
72856;SDS011;62742;52.136;4.500;2023-08-17T05:26:38;6.68;;;2.78;;
72856;SDS011;62742;52.136;4.500;2023-08-17T05:29:04;6.30;;;2.72;;
72856;SDS011;62742;52.136;4.500;2023-08-17T05:31:33;9.70;;;2.65;;
72856;SDS011;62742;52.136;4.500;2023-08-17T05:34:01;5.65;;;2.72;;
72856;SDS011;62742;52.136;4.500;2023-08-17T05:36:30;6.75;;;2.70;;
72856;SDS011;62742;52.136;4.500;2023-08-17T05:38:58;7.32;;;2.92;;
72856;SDS011;62742;52.136;4.500;2023-08-17T05:41:26;5.22;;;2.50;;
72856;SDS011;62742;52.136;4.500;2023-08-17T05:43:52;8.88;;;2.97;;
72856;SDS011;62742;52.136;4.500;2023-08-17T05:46:19;5.95;;;2.40;;
72856;SDS011;62742;52.136;4.500;2023-08-17T05:48:47;7.82;;;2.72;;
72856;SDS011;62742;52.136;4.500;2023-08-17T05:51:13;5.13;;;2.50;;
72856;SDS011;62742;52.136;4.500;2023-08-17T05:53:40;7.95;;;2.33;;
72856;SDS011;62742;52.136;4.500;2023-08-17T05:56:06;5.85;;;2.38;;
72856;SDS011;62742;52.136;4.500;2023-08-17T05:58:33;8.30;;;2.53;;
72856;SDS011;62742;52.136;4.500;2023-08-17T06:01:06;5.20;;;2.30;;
72856;SDS011;62742;52.136;4.500;2023-08-17T06:03:34;5.78;;;2.22;;
72856;SDS011;62742;52.136;4.500;2023-08-17T06:06:01;5.20;;;2.33;;
72856;SDS011;62742;52.136;4.500;2023-08-17T06:08:29;8.57;;;2.30;;
72856;SDS011;62742;52.136;4.500;2023-08-17T06:10:56;7.43;;;2.63;;
72856;SDS011;62742;52.136;4.500;2023-08-17T06:13:23;7.13;;;2.95;;
72856;SDS011;62742;52.136;4.500;2023-08-17T06:15:50;6.90;;;2.65;;
72856;SDS011;62742;52.136;4.500;2023-08-17T06:18:16;7.95;;;3.10;;
72856;SDS011;62742;52.136;4.500;2023-08-17T06:20:44;11.23;;;3.53;;
72856;SDS011;62742;52.136;4.500;2023-08-17T06:23:13;9.10;;;2.95;;
72856;SDS011;62742;52.136;4.500;2023-08-17T06:25:39;9.50;;;3.42;;
72856;SDS011;62742;52.136;4.500;2023-08-17T06:28:06;6.88;;;2.80;;
72856;SDS011;62742;52.136;4.500;2023-08-17T06:30:34;9.75;;;3.30;;
72856;SDS011;62742;52.136;4.500;2023-08-17T06:33:01;8.60;;;3.60;;
72856;SDS011;62742;52.136;4.500;2023-08-17T06:35:28;10.32;;;3.75;;
72856;SDS011;62742;52.136;4.500;2023-08-17T06:37:54;9.43;;;3.92;;
72856;SDS011;62742;52.136;4.500;2023-08-17T06:40:26;10.63;;;3.92;;
72856;SDS011;62742;52.136;4.500;2023-08-17T06:43:09;8.90;;;3.95;;
72856;SDS011;62742;52.136;4.500;2023-08-17T06:45:37;10.60;;;4.30;;
72856;SDS011;62742;52.136;4.500;2023-08-17T06:48:04;8.93;;;3.60;;
72856;SDS011;62742;52.136;4.500;2023-08-17T06:50:32;8.68;;;4.05;;
72856;SDS011;62742;52.136;4.500;2023-08-17T06:52:59;8.60;;;4.05;;
72856;SDS011;62742;52.136;4.500;2023-08-17T06:55:28;14.23;;;4.30;;
72856;SDS011;62742;52.136;4.500;2023-08-17T06:57:58;9.95;;;3.35;;
72856;SDS011;62742;52.136;4.500;2023-08-17T07:00:25;7.63;;;3.40;;
72856;SDS011;62742;52.136;4.500;2023-08-17T07:02:51;7.97;;;3.25;;
72856;SDS011;62742;52.136;4.500;2023-08-17T07:05:18;9.25;;;3.22;;
72856;SDS011;62742;52.136;4.500;2023-08-17T07:07:45;8.52;;;3.20;;
72856;SDS011;62742;52.136;4.500;2023-08-17T07:10:12;6.05;;;2.92;;
72856;SDS011;62742;52.136;4.500;2023-08-17T07:12:38;9.30;;;2.78;;
72856;SDS011;62742;52.136;4.500;2023-08-17T07:15:06;8.82;;;2.90;;
72856;SDS011;62742;52.136;4.500;2023-08-17T07:17:33;5.82;;;2.20;;
72856;SDS011;62742;52.136;4.500;2023-08-17T07:20:00;7.32;;;2.60;;
72856;SDS011;62742;52.136;4.500;2023-08-17T07:22:26;8.25;;;2.67;;
72856;SDS011;62742;52.136;4.500;2023-08-17T07:24:53;8.07;;;2.42;;
72856;SDS011;62742;52.136;4.500;2023-08-17T07:27:19;7.10;;;2.47;;
72856;SDS011;62742;52.136;4.500;2023-08-17T07:29:46;10.20;;;2.40;;
72856;SDS011;62742;52.136;4.500;2023-08-17T07:32:12;7.60;;;2.25;;
72856;SDS011;62742;52.136;4.500;2023-08-17T07:34:39;4.80;;;2.13;;
72856;SDS011;62742;52.136;4.500;2023-08-17T07:37:05;6.95;;;2.40;;
72856;SDS011;62742;52.136;4.500;2023-08-17T07:39:32;6.00;;;2.30;;
72856;SDS011;62742;52.136;4.500;2023-08-17T07:42:01;7.22;;;2.33;;
72856;SDS011;62742;52.136;4.500;2023-08-17T07:44:28;7.75;;;2.20;;
72856;SDS011;62742;52.136;4.500;2023-08-17T07:46:57;9.27;;;2.40;;
72856;SDS011;62742;52.136;4.500;2023-08-17T07:49:25;8.02;;;2.47;;
72856;SDS011;62742;52.136;4.500;2023-08-17T07:51:51;6.72;;;2.00;;
72856;SDS011;62742;52.136;4.500;2023-08-17T07:54:18;6.95;;;2.30;;
72856;SDS011;62742;52.136;4.500;2023-08-17T07:56:44;9.18;;;2.42;;
72856;SDS011;62742;52.136;4.500;2023-08-17T07:59:11;4.90;;;2.00;;
72856;SDS011;62742;52.136;4.500;2023-08-17T08:01:38;5.93;;;2.05;;
72856;SDS011;62742;52.136;4.500;2023-08-17T08:04:05;7.63;;;1.80;;
72856;SDS011;62742;52.136;4.500;2023-08-17T08:06:32;7.22;;;1.80;;
72856;SDS011;62742;52.136;4.500;2023-08-17T08:09:01;7.63;;;1.67;;
72856;SDS011;62742;52.136;4.500;2023-08-17T08:11:28;4.57;;;1.67;;
72856;SDS011;62742;52.136;4.500;2023-08-17T08:13:56;6.20;;;1.60;;
72856;SDS011;62742;52.136;4.500;2023-08-17T08:16:23;5.47;;;1.63;;
72856;SDS011;62742;52.136;4.500;2023-08-17T08:18:51;9.85;;;1.75;;
72856;SDS011;62742;52.136;4.500;2023-08-17T08:21:18;4.38;;;1.67;;
72856;SDS011;62742;52.136;4.500;2023-08-17T08:23:46;5.90;;;1.90;;
72856;SDS011;62742;52.136;4.500;2023-08-17T08:26:15;4.43;;;1.67;;
72856;SDS011;62742;52.136;4.500;2023-08-17T08:28:42;5.55;;;2.00;;
72856;SDS011;62742;52.136;4.500;2023-08-17T08:31:08;9.35;;;1.83;;
72856;SDS011;62742;52.136;4.500;2023-08-17T08:33:35;4.93;;;1.90;;
72856;SDS011;62742;52.136;4.500;2023-08-17T08:36:03;10.63;;;1.80;;
72856;SDS011;62742;52.136;4.500;2023-08-17T08:38:42;6.88;;;1.75;;
72856;SDS011;62742;52.136;4.500;2023-08-17T08:41:15;5.68;;;1.85;;
72856;SDS011;62742;52.136;4.500;2023-08-17T08:43:47;5.53;;;1.63;;
72856;SDS011;62742;52.136;4.500;2023-08-17T08:46:19;5.63;;;1.52;;
72856;SDS011;62742;52.136;4.500;2023-08-17T08:48:52;7.95;;;2.00;;
72856;SDS011;62742;52.136;4.500;2023-08-17T08:51:28;5.95;;;1.70;;
72856;SDS011;62742;52.136;4.500;2023-08-17T08:54:03;9.23;;;1.88;;
72856;SDS011;62742;52.136;4.500;2023-08-17T08:56:38;5.25;;;1.75;;
72856;SDS011;62742;52.136;4.500;2023-08-17T08:59:19;9.27;;;2.10;;
72856;SDS011;62742;52.136;4.500;2023-08-17T09:01:49;4.95;;;1.50;;
72856;SDS011;62742;52.136;4.500;2023-08-17T09:04:16;6.03;;;2.15;;
72856;SDS011;62742;52.136;4.500;2023-08-17T09:06:48;8.48;;;2.20;;
72856;SDS011;62742;52.136;4.500;2023-08-17T09:09:21;6.35;;;1.77;;
72856;SDS011;62742;52.136;4.500;2023-08-17T09:11:49;6.00;;;1.90;;
72856;SDS011;62742;52.136;4.500;2023-08-17T09:14:16;5.55;;;1.73;;
72856;SDS011;62742;52.136;4.500;2023-08-17T09:16:47;4.82;;;1.70;;
72856;SDS011;62742;52.136;4.500;2023-08-17T09:19:15;6.20;;;1.63;;
72856;SDS011;62742;52.136;4.500;2023-08-17T09:21:49;4.18;;;2.08;;
72856;SDS011;62742;52.136;4.500;2023-08-17T09:24:17;5.40;;;1.92;;
72856;SDS011;62742;52.136;4.500;2023-08-17T09:26:48;5.20;;;2.10;;
72856;SDS011;62742;52.136;4.500;2023-08-17T09:29:25;6.75;;;2.25;;
72856;SDS011;62742;52.136;4.500;2023-08-17T09:32:09;7.40;;;1.90;;
72856;SDS011;62742;52.136;4.500;2023-08-17T09:34:43;5.45;;;1.95;;
72856;SDS011;62742;52.136;4.500;2023-08-17T09:37:13;6.90;;;1.75;;
72856;SDS011;62742;52.136;4.500;2023-08-17T09:39:44;4.63;;;1.73;;
72856;SDS011;62742;52.136;4.500;2023-08-17T09:42:12;5.72;;;1.63;;
72856;SDS011;62742;52.136;4.500;2023-08-17T09:44:45;5.28;;;1.60;;
72856;SDS011;62742;52.136;4.500;2023-08-17T09:47:12;5.85;;;1.75;;
72856;SDS011;62742;52.136;4.500;2023-08-17T09:49:39;8.32;;;2.00;;
72856;SDS011;62742;52.136;4.500;2023-08-17T09:52:06;4.35;;;1.60;;
72856;SDS011;62742;52.136;4.500;2023-08-17T09:54:49;5.70;;;1.73;;
72856;SDS011;62742;52.136;4.500;2023-08-17T09:57:22;4.82;;;1.55;;
72856;SDS011;62742;52.136;4.500;2023-08-17T10:00:03;5.80;;;2.35;;
72856;SDS011;62742;52.136;4.500;2023-08-17T10:02:39;12.73;;;1.80;;
72856;SDS011;62742;52.136;4.500;2023-08-17T10:05:21;5.40;;;1.83;;
72856;SDS011;62742;52.136;4.500;2023-08-17T10:10:28;8.52;;;2.20;;
72856;SDS011;62742;52.136;4.500;2023-08-17T10:13:12;5.43;;;1.95;;
72856;SDS011;62742;52.136;4.500;2023-08-17T10:16:26;7.38;;;1.88;;
72856;SDS011;62742;52.136;4.500;2023-08-17T10:19:17;9.52;;;2.33;;
72856;SDS011;62742;52.136;4.500;2023-08-17T10:22:42;7.53;;;2.40;;
72856;SDS011;62742;52.136;4.500;2023-08-17T10:25:58;6.10;;;1.92;;
72856;SDS011;62742;52.136;4.500;2023-08-17T10:28:56;6.53;;;1.98;;
72856;SDS011;62742;52.136;4.500;2023-08-17T10:31:28;4.45;;;1.58;;
72856;SDS011;62742;52.136;4.500;2023-08-17T10:33:58;8.00;;;2.28;;
72856;SDS011;62742;52.136;4.500;2023-08-17T10:36:31;5.53;;;2.05;;
72856;SDS011;62742;52.136;4.500;2023-08-17T10:39:27;6.72;;;2.00;;
72856;SDS011;62742;52.136;4.500;2023-08-17T10:42:29;6.05;;;2.40;;
72856;SDS011;62742;52.136;4.500;2023-08-17T10:51:01;6.10;;;2.30;;
72856;SDS011;62742;52.136;4.500;2023-08-17T10:53:37;6.00;;;2.42;;
72856;SDS011;62742;52.136;4.500;2023-08-17T10:56:29;10.10;;;2.30;;
72856;SDS011;62742;52.136;4.500;2023-08-17T10:59:03;8.60;;;2.30;;
72856;SDS011;62742;52.136;4.500;2023-08-17T11:02:01;5.43;;;1.90;;
72856;SDS011;62742;52.136;4.500;2023-08-17T11:04:32;6.60;;;2.20;;
72856;SDS011;62742;52.136;4.500;2023-08-17T11:07:04;6.47;;;1.98;;
72856;SDS011;62742;52.136;4.500;2023-08-17T11:09:44;6.60;;;1.98;;
72856;SDS011;62742;52.136;4.500;2023-08-17T11:12:27;5.22;;;1.98;;
72856;SDS011;62742;52.136;4.500;2023-08-17T11:14:59;6.82;;;2.08;;
72856;SDS011;62742;52.136;4.500;2023-08-17T11:17:25;11.75;;;2.45;;
72856;SDS011;62742;52.136;4.500;2023-08-17T11:19:53;7.15;;;2.50;;
72856;SDS011;62742;52.136;4.500;2023-08-17T11:22:35;5.90;;;2.63;;
72856;SDS011;62742;52.136;4.500;2023-08-17T11:25:04;10.23;;;2.45;;
72856;SDS011;62742;52.136;4.500;2023-08-17T11:27:35;5.40;;;2.35;;
72856;SDS011;62742;52.136;4.500;2023-08-17T11:30:15;4.68;;;2.38;;
72856;SDS011;62742;52.136;4.500;2023-08-17T11:32:52;8.35;;;2.70;;
72856;SDS011;62742;52.136;4.500;2023-08-17T11:35:21;8.18;;;2.90;;
72856;SDS011;62742;52.136;4.500;2023-08-17T11:37:58;8.50;;;3.08;;
72856;SDS011;62742;52.136;4.500;2023-08-17T11:40:25;6.57;;;2.53;;
72856;SDS011;62742;52.136;4.500;2023-08-17T11:42:55;9.85;;;3.22;;
72856;SDS011;62742;52.136;4.500;2023-08-17T11:45:33;8.27;;;2.92;;
72856;SDS011;62742;52.136;4.500;2023-08-17T11:48:00;7.63;;;2.72;;
72856;SDS011;62742;52.136;4.500;2023-08-17T11:50:29;11.57;;;3.22;;
72856;SDS011;62742;52.136;4.500;2023-08-17T11:53:02;7.05;;;2.67;;
72856;SDS011;62742;52.136;4.500;2023-08-17T11:55:30;8.02;;;2.88;;
72856;SDS011;62742;52.136;4.500;2023-08-17T11:57:58;9.23;;;3.28;;
72856;SDS011;62742;52.136;4.500;2023-08-17T12:00:33;6.93;;;2.90;;
72856;SDS011;62742;52.136;4.500;2023-08-17T12:03:15;6.80;;;3.03;;
72856;SDS011;62742;52.136;4.500;2023-08-17T12:05:43;7.25;;;2.45;;
72856;SDS011;62742;52.136;4.500;2023-08-17T12:08:12;6.15;;;2.50;;
72856;SDS011;62742;52.136;4.500;2023-08-17T12:10:49;7.65;;;2.70;;
72856;SDS011;62742;52.136;4.500;2023-08-17T12:13:43;5.72;;;2.50;;
72856;SDS011;62742;52.136;4.500;2023-08-17T12:16:21;6.65;;;2.53;;
72856;SDS011;62742;52.136;4.500;2023-08-17T12:18:52;11.38;;;2.83;;
72856;SDS011;62742;52.136;4.500;2023-08-17T12:21:24;6.93;;;2.88;;
72856;SDS011;62742;52.136;4.500;2023-08-17T12:23:53;7.13;;;2.83;;
72856;SDS011;62742;52.136;4.500;2023-08-17T12:26:22;5.88;;;2.50;;
72856;SDS011;62742;52.136;4.500;2023-08-17T12:28:56;7.97;;;3.25;;
72856;SDS011;62742;52.136;4.500;2023-08-17T12:31:23;8.40;;;3.08;;
72856;SDS011;62742;52.136;4.500;2023-08-17T12:33:50;6.85;;;3.40;;
72856;SDS011;62742;52.136;4.500;2023-08-17T12:36:17;8.00;;;2.53;;
72856;SDS011;62742;52.136;4.500;2023-08-17T12:38:45;7.75;;;2.60;;
72856;SDS011;62742;52.136;4.500;2023-08-17T12:41:19;8.68;;;2.47;;
72856;SDS011;62742;52.136;4.500;2023-08-17T12:43:45;5.22;;;2.67;;
72856;SDS011;62742;52.136;4.500;2023-08-17T12:46:12;7.50;;;2.78;;
72856;SDS011;62742;52.136;4.500;2023-08-17T12:48:39;9.05;;;2.80;;
72856;SDS011;62742;52.136;4.500;2023-08-17T12:51:09;8.38;;;2.65;;
72856;SDS011;62742;52.136;4.500;2023-08-17T12:53:38;7.07;;;2.60;;
72856;SDS011;62742;52.136;4.500;2023-08-17T12:56:05;7.97;;;2.97;;
72856;SDS011;62742;52.136;4.500;2023-08-17T12:58:31;7.55;;;2.75;;
72856;SDS011;62742;52.136;4.500;2023-08-17T13:00:59;9.00;;;2.72;;
72856;SDS011;62742;52.136;4.500;2023-08-17T13:03:27;6.35;;;2.72;;
72856;SDS011;62742;52.136;4.500;2023-08-17T13:05:54;7.93;;;2.47;;
72856;SDS011;62742;52.136;4.500;2023-08-17T13:08:22;6.80;;;2.75;;
72856;SDS011;62742;52.136;4.500;2023-08-17T13:10:54;9.50;;;2.67;;
72856;SDS011;62742;52.136;4.500;2023-08-17T13:13:25;8.10;;;3.05;;
72856;SDS011;62742;52.136;4.500;2023-08-17T13:15:53;9.00;;;2.65;;
72856;SDS011;62742;52.136;4.500;2023-08-17T13:18:22;7.10;;;2.88;;
72856;SDS011;62742;52.136;4.500;2023-08-17T13:20:48;8.80;;;2.90;;
72856;SDS011;62742;52.136;4.500;2023-08-17T13:23:15;6.88;;;3.10;;
72856;SDS011;62742;52.136;4.500;2023-08-17T13:25:41;8.68;;;3.13;;
72856;SDS011;62742;52.136;4.500;2023-08-17T13:28:08;6.60;;;2.83;;
72856;SDS011;62742;52.136;4.500;2023-08-17T13:30:40;7.50;;;3.47;;
72856;SDS011;62742;52.136;4.500;2023-08-17T13:33:09;7.03;;;3.10;;
72856;SDS011;62742;52.136;4.500;2023-08-17T13:35:36;9.05;;;2.88;;
72856;SDS011;62742;52.136;4.500;2023-08-17T13:38:04;6.20;;;2.38;;
72856;SDS011;62742;52.136;4.500;2023-08-17T13:40:39;5.72;;;2.45;;
72856;SDS011;62742;52.136;4.500;2023-08-17T13:43:12;7.28;;;3.00;;
72856;SDS011;62742;52.136;4.500;2023-08-17T13:45:39;9.82;;;2.70;;
72856;SDS011;62742;52.136;4.500;2023-08-17T13:48:21;6.07;;;2.88;;
72856;SDS011;62742;52.136;4.500;2023-08-17T13:50:55;7.67;;;2.83;;
72856;SDS011;62742;52.136;4.500;2023-08-17T13:53:21;8.57;;;3.17;;
72856;SDS011;62742;52.136;4.500;2023-08-17T13:55:48;7.82;;;3.33;;
72856;SDS011;62742;52.136;4.500;2023-08-17T13:58:15;9.15;;;2.83;;
72856;SDS011;62742;52.136;4.500;2023-08-17T14:00:42;7.75;;;2.88;;
72856;SDS011;62742;52.136;4.500;2023-08-17T14:03:08;9.85;;;3.10;;
72856;SDS011;62742;52.136;4.500;2023-08-17T14:05:35;13.88;;;3.35;;
72856;SDS011;62742;52.136;4.500;2023-08-17T14:08:01;8.43;;;2.90;;
72856;SDS011;62742;52.136;4.500;2023-08-17T14:10:30;8.43;;;3.28;;
72856;SDS011;62742;52.136;4.500;2023-08-17T14:12:56;7.60;;;3.10;;
72856;SDS011;62742;52.136;4.500;2023-08-17T14:15:23;7.60;;;2.85;;
72856;SDS011;62742;52.136;4.500;2023-08-17T14:17:50;6.18;;;2.72;;
72856;SDS011;62742;52.136;4.500;2023-08-17T14:20:16;6.60;;;2.80;;
72856;SDS011;62742;52.136;4.500;2023-08-17T14:22:43;8.05;;;3.25;;
72856;SDS011;62742;52.136;4.500;2023-08-17T14:25:11;7.50;;;3.10;;
72856;SDS011;62742;52.136;4.500;2023-08-17T14:27:37;7.03;;;2.95;;
72856;SDS011;62742;52.136;4.500;2023-08-17T14:30:05;8.23;;;2.88;;
72856;SDS011;62742;52.136;4.500;2023-08-17T14:32:32;7.50;;;3.05;;
72856;SDS011;62742;52.136;4.500;2023-08-17T14:34:59;6.78;;;3.10;;
72856;SDS011;62742;52.136;4.500;2023-08-17T14:37:25;7.28;;;3.53;;
72856;SDS011;62742;52.136;4.500;2023-08-17T14:39:52;6.70;;;3.25;;
72856;SDS011;62742;52.136;4.500;2023-08-17T14:42:18;6.63;;;3.00;;
72856;SDS011;62742;52.136;4.500;2023-08-17T14:44:45;7.80;;;3.28;;
72856;SDS011;62742;52.136;4.500;2023-08-17T14:47:11;8.55;;;3.33;;
72856;SDS011;62742;52.136;4.500;2023-08-17T14:49:38;8.80;;;3.60;;
72856;SDS011;62742;52.136;4.500;2023-08-17T14:52:32;8.77;;;3.45;;
72856;SDS011;62742;52.136;4.500;2023-08-17T14:55:06;7.70;;;3.58;;
72856;SDS011;62742;52.136;4.500;2023-08-17T14:57:36;9.00;;;3.88;;
72856;SDS011;62742;52.136;4.500;2023-08-17T15:00:07;8.80;;;3.40;;
72856;SDS011;62742;52.136;4.500;2023-08-17T15:02:35;9.20;;;3.58;;
72856;SDS011;62742;52.136;4.500;2023-08-17T15:05:01;9.02;;;3.30;;
72856;SDS011;62742;52.136;4.500;2023-08-17T15:07:28;9.10;;;3.80;;
72856;SDS011;62742;52.136;4.500;2023-08-17T15:09:55;12.07;;;3.65;;
72856;SDS011;62742;52.136;4.500;2023-08-17T15:12:21;8.07;;;3.67;;
72856;SDS011;62742;52.136;4.500;2023-08-17T15:14:49;8.48;;;3.33;;